Salerno / Pontecagnano Airport LIRI

Flugplatz Daten

Name: Salerno / Pontecagnano Airport

Ident: LIRI

Lat: 40,62039948

Long: 14,91129971

Platzhöhe: 119 ft

IataCode: QSR

City: Salerno

Homepage: http://www.aeroportosalerno.it/

Metar

2021/08/05 12:50
LIRI 051250Z 25018KT 220V280 CAVOK 28/18 Q1011

Taf

Gewünschte Webcam nicht vorhanden? Dann fügen Sie eine hinzu. Sie wird dann so schnell wie möglich freigeschaltet
Url: Title: